Time;durP1;ratioP1;P1;durP2;ratioP2;P2;SDS_P1;SDS_P2;PMS_P1;PMS_P2;Temp;Humidity;BMP_temperature;BMP_pressure;BME280_temperature;BME280_humidity;BME280_pressure;Samples;Min_cycle;Max_cycle;Signal;HPM_P1;HPM_P2
2023/07/07 00:00:43;;;;;;;0.50;0.40;;;14.80;99.90;;;;;;5026675;28;20466;-78
2023/07/07 00:03:10;;;;;;;0.50;0.40;;;14.70;99.90;;;;;;5024652;28;20443;-76
2023/07/07 00:05:37;;;;;;;0.50;0.40;;;14.70;99.90;;;;;;5023796;28;20457;-78
2023/07/07 00:08:04;;;;;;;0.50;0.40;;;14.70;99.90;;;;;;5024999;28;20954;-80
2023/07/07 00:10:30;;;;;;;0.50;0.30;;;14.60;99.90;;;;;;5026433;28;20527;-78
2023/07/07 00:12:59;;;;;;;0.50;0.40;;;14.60;99.90;;;;;;5026050;28;20483;-79
2023/07/07 00:15:26;;;;;;;0.50;0.40;;;14.50;99.90;;;;;;5023400;28;20447;-78
2023/07/07 00:17:52;;;;;;;0.50;0.40;;;14.40;99.90;;;;;;5023303;28;20447;-79
2023/07/07 00:20:21;;;;;;;0.50;0.40;;;14.40;99.90;;;;;;5015323;28;20788;-79
2023/07/07 00:22:48;;;;;;;0.50;0.40;;;14.40;99.90;;;;;;5023462;28;20954;-76
2023/07/07 00:25:15;;;;;;;0.50;0.40;;;14.40;99.90;;;;;;5025906;28;20771;-77
2023/07/07 00:27:42;;;;;;;0.50;0.40;;;14.40;99.90;;;;;;5026436;28;20446;-78
2023/07/07 00:30:11;;;;;;;0.50;0.40;;;14.30;99.90;;;;;;5023534;28;20458;-78
2023/07/07 00:32:38;;;;;;;0.50;0.40;;;14.30;99.90;;;;;;5023106;28;20438;-78
2023/07/07 00:35:05;;;;;;;0.50;0.40;;;14.20;99.90;;;;;;5024325;28;20449;-78
2023/07/07 00:37:32;;;;;;;0.50;0.40;;;14.20;99.90;;;;;;5026584;28;20445;-78
2023/07/07 00:39:59;;;;;;;0.50;0.40;;;14.20;99.90;;;;;;5024836;28;20465;-78
2023/07/07 00:42:26;;;;;;;0.50;0.40;;;14.20;99.90;;;;;;5022294;28;20447;-78
2023/07/07 00:45:18;;;;;;;0.50;0.40;;;14.20;99.90;;;;;;5022795;28;20449;-78
2023/07/07 00:47:51;;;;;;;0.50;0.40;;;14.10;99.90;;;;;;5017881;28;20450;-77
2023/07/07 00:50:20;;;;;;;0.50;0.40;;;14.10;99.90;;;;;;5024999;28;20511;-78
2023/07/07 00:52:47;;;;;;;0.50;0.40;;;14.10;99.90;;;;;;5025796;28;20449;-75
2023/07/07 00:55:19;;;;;;;0.50;0.40;;;14.10;99.90;;;;;;5023481;28;20464;-76
2023/07/07 00:57:47;;;;;;;0.50;0.40;;;14.00;99.90;;;;;;5022807;28;20451;-79
2023/07/07 01:00:16;;;;;;;0.50;0.40;;;14.00;99.90;;;;;;5024163;28;20466;-78
2023/07/07 01:02:52;;;;;;;0.50;0.40;;;14.00;99.90;;;;;;5026121;28;20535;-79
2023/07/07 01:05:19;;;;;;;0.50;0.40;;;14.00;99.90;;;;;;5022606;28;20440;-78
2023/07/07 01:07:51;;;;;;;0.57;0.57;;;14.00;99.90;;;;;;5022213;28;20447;-78
2023/07/07 01:10:19;;;;;;;0.50;0.40;;;13.90;99.90;;;;;;5024489;28;20466;-78
2023/07/07 01:12:47;;;;;;;0.50;0.40;;;13.90;99.90;;;;;;5025714;28;20442;-77
2023/07/07 01:15:15;;;;;;;0.50;0.40;;;13.90;99.90;;;;;;5023276;28;20454;-78
2023/07/07 01:17:52;;;;;;;0.50;0.40;;;13.80;99.90;;;;;;5022269;28;20952;-77
2023/07/07 01:20:27;;;;;;;0.50;0.40;;;13.80;99.90;;;;;;5024316;28;20473;-78
2023/07/07 01:23:34;;;;;;;0.50;0.40;;;13.80;99.90;;;;;;5025578;28;20450;-79
2023/07/07 01:26:22;;;;;;;0.50;0.40;;;13.80;99.90;;;;;;5018815;28;20503;-79
2023/07/07 01:29:05;;;;;;;0.50;0.40;;;13.70;99.90;;;;;;5025097;28;20477;-77
2023/07/07 01:31:40;;;;;;;0.50;0.40;;;13.70;99.90;;;;;;5014679;28;20456;-79
2023/07/07 01:34:09;;;;;;;0.50;0.40;;;13.70;99.90;;;;;;5022639;28;20483;-78
2023/07/07 01:36:36;;;;;;;0.50;0.40;;;13.70;99.90;;;;;;5025396;28;20921;-79
2023/07/07 01:39:03;;;;;;;0.50;0.40;;;13.70;99.90;;;;;;5024205;28;20453;-78
2023/07/07 01:41:36;;;;;;;0.50;0.40;;;13.60;99.90;;;;;;5021669;28;20505;-77
2023/07/07 01:44:08;;;;;;;0.50;0.40;;;13.60;99.90;;;;;;5021856;28;20806;-78
2023/07/07 01:46:41;;;;;;;0.50;0.40;;;13.60;99.90;;;;;;5025145;28;20531;-77
2023/07/07 01:49:16;;;;;;;0.50;0.40;;;13.60;99.90;;;;;;5023791;28;20448;-78
2023/07/07 01:51:48;;;;;;;0.50;0.40;;;13.60;99.90;;;;;;5021083;28;20442;-76
2023/07/07 01:54:16;;;;;;;0.50;0.40;;;13.70;99.90;;;;;;5022818;28;20485;-78
2023/07/07 01:56:46;;;;;;;0.50;0.40;;;13.70;99.90;;;;;;5024947;28;20453;-78
2023/07/07 01:59:15;;;;;;;0.50;0.40;;;13.60;99.90;;;;;;5022833;28;20451;-77
2023/07/07 02:01:43;;;;;;;0.50;0.40;;;13.60;99.90;;;;;;5021142;28;20451;-78
2023/07/07 02:04:10;;;;;;;0.50;0.40;;;13.60;99.90;;;;;;5021915;28;20447;-76
2023/07/07 02:06:37;;;;;;;0.50;0.40;;;13.60;99.90;;;;;;5024612;28;20985;-78
2023/07/07 02:09:04;;;;;;;0.50;0.40;;;13.60;99.90;;;;;;5024290;28;20443;-76
2023/07/07 02:11:31;;;;;;;0.50;0.40;;;13.60;99.90;;;;;;5021120;28;20452;-78
2023/07/07 02:13:57;;;;;;;0.50;0.40;;;13.70;99.90;;;;;;5021030;28;20493;-78
2023/07/07 02:16:24;;;;;;;0.50;0.40;;;13.60;99.90;;;;;;5023429;28;20450;-78
2023/07/07 02:18:52;;;;;;;0.50;0.40;;;13.60;99.90;;;;;;5024402;28;20448;-78
2023/07/07 02:21:20;;;;;;;0.50;0.40;;;13.60;99.90;;;;;;5021374;28;20463;-77
2023/07/07 02:23:47;;;;;;;0.50;0.40;;;13.70;99.90;;;;;;5021040;28;20443;-78
2023/07/07 02:26:18;;;;;;;0.50;0.40;;;13.60;99.90;;;;;;5021978;28;20443;-77
2023/07/07 02:28:44;;;;;;;0.50;0.40;;;13.70;99.90;;;;;;5024174;28;20482;-78
2023/07/07 02:31:12;;;;;;;0.50;0.40;;;13.60;99.90;;;;;;5022699;28;20467;-78
2023/07/07 02:33:39;;;;;;;0.50;0.40;;;13.60;99.90;;;;;;5021072;28;20886;-79
2023/07/07 02:36:09;;;;;;;0.50;0.40;;;13.60;99.90;;;;;;5020652;28;20443;-78
2023/07/07 02:38:36;;;;;;;0.50;0.40;;;13.60;99.90;;;;;;5014197;28;20449;-78
2023/07/07 02:41:03;;;;;;;5.67;5.30;;;13.60;99.90;;;;;;5021704;28;20466;-78
2023/07/07 02:43:30;;;;;;;0.50;0.40;;;13.50;99.90;;;;;;5023686;28;20999;-78
2023/07/07 02:45:57;;;;;;;0.50;0.40;;;13.50;99.90;;;;;;5024090;28;20825;-78
2023/07/07 02:48:24;;;;;;;0.50;0.40;;;13.50;99.90;;;;;;5021354;28;20449;-78
2023/07/07 02:50:56;;;;;;;0.50;0.40;;;13.40;99.90;;;;;;5026622;28;20462;-78
2023/07/07 02:53:26;;;;;;;0.50;0.40;;;13.40;99.90;;;;;;5021699;28;20794;-77
2023/07/07 02:55:53;;;;;;;0.50;0.40;;;13.40;99.90;;;;;;5020837;28;20497;-78
2023/07/07 02:58:20;;;;;;;0.50;0.40;;;13.40;99.90;;;;;;5021684;28;20444;-78
2023/07/07 03:00:46;;;;;;;0.50;0.40;;;13.40;99.90;;;;;;5023588;28;20469;-78
2023/07/07 03:03:13;;;;;;;0.50;0.30;;;13.30;99.90;;;;;;5022688;28;20447;-77
2023/07/07 03:05:41;;;;;;;0.50;0.40;;;13.40;99.90;;;;;;5020165;28;20440;-78
2023/07/07 03:08:07;;;;;;;0.50;0.40;;;13.40;99.90;;;;;;5020180;28;20483;-78
2023/07/07 03:10:37;;;;;;;0.50;0.40;;;13.30;99.90;;;;;;5011978;28;20463;-78
2023/07/07 03:13:04;;;;;;;0.50;0.40;;;13.30;99.90;;;;;;5021205;28;20448;-79
2023/07/07 03:15:38;;;;;;;0.50;0.40;;;13.30;99.90;;;;;;5022910;28;20898;-78
2023/07/07 03:18:06;;;;;;;0.50;0.30;;;13.30;99.90;;;;;;5023309;28;20454;-79
2023/07/07 03:20:33;;;;;;;0.50;0.40;;;13.20;99.90;;;;;;5019254;28;20470;-78
2023/07/07 03:23:00;;;;;;;0.50;0.40;;;13.20;99.90;;;;;;5020135;28;20447;-78
2023/07/07 03:25:27;;;;;;;0.50;0.40;;;13.20;99.90;;;;;;5020025;28;20439;-78
2023/07/07 03:27:55;;;;;;;0.60;0.60;;;13.20;99.90;;;;;;5019898;28;20443;-78
2023/07/07 03:30:22;;;;;;;0.50;0.40;;;13.20;99.90;;;;;;5020853;28;20464;-78
2023/07/07 03:32:49;;;;;;;0.50;0.40;;;13.20;99.90;;;;;;5022354;28;20935;-78
2023/07/07 03:35:16;;;;;;;1.07;1.07;;;13.20;99.90;;;;;;5021845;28;20475;-78
2023/07/07 03:37:42;;;;;;;0.50;0.40;;;13.20;99.90;;;;;;5019880;28;20459;-78
2023/07/07 03:40:10;;;;;;;0.50;0.40;;;13.20;99.90;;;;;;5019911;28;20470;-78
2023/07/07 03:42:37;;;;;;;0.50;0.40;;;13.20;99.90;;;;;;5011637;28;20493;-78
2023/07/07 03:45:06;;;;;;;0.50;0.40;;;13.30;99.90;;;;;;5026958;28;20430;-79
2023/07/07 03:47:33;;;;;;;0.50;0.40;;;13.30;99.90;;;;;;5014628;28;20449;-78
2023/07/07 03:50:00;;;;;;;0.50;0.40;;;13.30;99.90;;;;;;5019387;28;20466;-78
2023/07/07 03:52:27;;;;;;;0.50;0.40;;;13.20;99.90;;;;;;5021468;28;20943;-79
2023/07/07 03:54:54;;;;;;;0.50;0.40;;;13.30;99.90;;;;;;5023004;28;21000;-78
2023/07/07 03:57:21;;;;;;;0.50;0.40;;;13.30;99.90;;;;;;5021836;28;20951;-77
2023/07/07 03:59:48;;;;;;;0.50;0.40;;;13.30;99.90;;;;;;5024195;28;20465;-79
2023/07/07 04:02:16;;;;;;;0.50;0.40;;;13.30;99.90;;;;;;5022717;28;21010;-78
2023/07/07 04:04:44;;;;;;;0.50;0.40;;;13.30;99.90;;;;;;5019825;28;20461;-78
2023/07/07 04:07:11;;;;;;;0.50;0.40;;;13.30;99.90;;;;;;5027587;28;20449;-78
2023/07/07 04:09:38;;;;;;;0.50;0.40;;;13.30;99.90;;;;;;5019305;28;20474;-78
2023/07/07 04:12:09;;;;;;;0.50;0.40;;;13.30;99.90;;;;;;5019429;28;20446;-78
2023/07/07 04:14:37;;;;;;;0.50;0.40;;;13.30;99.90;;;;;;5021600;28;20537;-77
2023/07/07 04:17:04;;;;;;;0.50;0.40;;;13.40;99.90;;;;;;5022957;28;20443;-79
2023/07/07 04:19:32;;;;;;;0.50;0.40;;;13.40;99.90;;;;;;5024614;28;21010;-78
2023/07/07 04:21:59;;;;;;;0.50;0.40;;;13.40;99.90;;;;;;5026579;28;20454;-78
2023/07/07 04:24:27;;;;;;;0.50;0.40;;;13.40;99.90;;;;;;5024337;28;20439;-77
2023/07/07 04:26:53;;;;;;;0.50;0.40;;;13.50;99.90;;;;;;5023410;28;20449;-78
2023/07/07 04:29:20;;;;;;;0.50;0.40;;;13.50;99.90;;;;;;5033888;28;20444;-78
2023/07/07 04:31:47;;;;;;;0.50;0.40;;;13.60;99.90;;;;;;5036645;28;20462;-79
2023/07/07 04:34:15;;;;;;;0.50;0.40;;;13.60;99.90;;;;;;5036207;28;20482;-80
2023/07/07 04:36:43;;;;;;;0.50;0.40;;;13.70;99.90;;;;;;5025681;28;20707;-80
2023/07/07 04:39:10;;;;;;;0.50;0.40;;;13.70;99.90;;;;;;5025013;28;20443;-79
2023/07/07 04:41:37;;;;;;;0.50;0.40;;;13.80;99.90;;;;;;5022362;28;20453;-77
2023/07/07 04:44:04;;;;;;;0.50;0.40;;;13.80;99.90;;;;;;5031378;28;20446;-78
2023/07/07 04:46:32;;;;;;;0.50;0.40;;;13.90;99.90;;;;;;5030439;28;20446;-80
2023/07/07 04:48:59;;;;;;;0.50;0.40;;;13.90;99.90;;;;;;5034113;28;20441;-79
2023/07/07 04:51:26;;;;;;;0.50;0.40;;;14.00;99.90;;;;;;5028195;28;20831;-79
2023/07/07 04:53:54;;;;;;;0.50;0.40;;;14.00;99.90;;;;;;5023204;28;20446;-79
2023/07/07 04:56:23;;;;;;;0.50;0.40;;;14.00;99.90;;;;;;5028952;28;20442;-78
2023/07/07 04:58:52;;;;;;;0.50;0.40;;;14.10;99.90;;;;;;5030647;28;20448;-80
2023/07/07 05:01:22;;;;;;;0.50;0.40;;;14.20;99.90;;;;;;5029547;28;20989;-77
2023/07/07 05:03:51;;;;;;;0.50;0.40;;;14.20;99.90;;;;;;5030086;28;20453;-78
2023/07/07 05:06:19;;;;;;;0.50;0.40;;;14.20;99.90;;;;;;5030216;28;20501;-78
2023/07/07 05:08:47;;;;;;;0.50;0.40;;;14.30;99.90;;;;;;5018704;28;20466;-79
2023/07/07 05:11:18;;;;;;;0.50;0.40;;;14.40;99.90;;;;;;5023309;28;20471;-77
2023/07/07 05:13:47;;;;;;;0.50;0.40;;;14.50;99.90;;;;;;5022481;28;20775;-77
2023/07/07 05:16:17;;;;;;;0.50;0.40;;;14.60;99.90;;;;;;5024060;28;20478;-78
2023/07/07 05:18:44;;;;;;;0.50;0.30;;;14.80;99.90;;;;;;5029507;28;20446;-78
2023/07/07 05:21:12;;;;;;;0.60;0.50;;;14.90;99.90;;;;;;5029366;28;20465;-78
2023/07/07 05:23:40;;;;;;;0.50;0.40;;;15.00;99.90;;;;;;5030108;28;20444;-81
2023/07/07 05:26:07;;;;;;;0.50;0.40;;;15.10;99.90;;;;;;5033671;28;20442;-79
2023/07/07 05:28:35;;;;;;;0.50;0.40;;;15.30;99.90;;;;;;5027602;28;20941;-81
2023/07/07 05:31:02;;;;;;;0.50;0.30;;;15.40;99.90;;;;;;5025917;28;20459;-78
2023/07/07 05:33:30;;;;;;;0.50;0.40;;;15.50;99.90;;;;;;5026324;28;20447;-79
2023/07/07 05:35:59;;;;;;;0.50;0.40;;;15.60;99.90;;;;;;5028571;28;20988;-79
2023/07/07 05:38:27;;;;;;;0.50;0.40;;;15.80;99.90;;;;;;5028138;28;20451;-78
2023/07/07 05:40:55;;;;;;;0.50;0.40;;;15.90;99.90;;;;;;5025245;28;20470;-78
2023/07/07 05:43:23;;;;;;;0.50;0.40;;;16.00;99.90;;;;;;5025231;28;20451;-78
2023/07/07 05:45:57;;;;;;;0.50;0.40;;;16.20;99.90;;;;;;5013188;28;20446;-79
2023/07/07 05:48:24;;;;;;;0.50;0.40;;;16.20;99.90;;;;;;5027756;28;20442;-76
2023/07/07 05:50:51;;;;;;;0.50;0.30;;;16.40;99.90;;;;;;5024311;28;20460;-78
2023/07/07 05:53:18;;;;;;;0.50;0.40;;;16.50;99.90;;;;;;5024493;28;20443;-78
2023/07/07 05:55:46;;;;;;;0.50;0.30;;;16.70;99.90;;;;;;5026462;28;20482;-79
2023/07/07 05:58:13;;;;;;;0.50;0.30;;;16.80;99.90;;;;;;5021295;28;20865;-78
2023/07/07 06:00:40;;;;;;;0.50;0.30;;;17.00;99.90;;;;;;5033262;28;20466;-79
2023/07/07 06:03:09;;;;;;;0.50;0.40;;;17.20;99.90;;;;;;5025922;28;20447;-79
2023/07/07 06:05:35;;;;;;;0.50;0.40;;;17.40;99.90;;;;;;5026126;28;20433;-79
2023/07/07 06:08:04;;;;;;;15.90;1.60;;;17.50;99.90;;;;;;5028288;28;20931;-78
2023/07/07 06:10:31;;;;;;;0.50;0.40;;;17.70;99.90;;;;;;5028118;28;20483;-77
2023/07/07 06:12:58;;;;;;;0.50;0.30;;;17.90;99.90;;;;;;5028334;28;20442;-80
2023/07/07 06:15:24;;;;;;;0.50;0.30;;;18.10;99.90;;;;;;5020083;28;20475;-77
2023/07/07 06:17:51;;;;;;;0.50;0.30;;;18.30;99.90;;;;;;5017245;28;20440;-79
2023/07/07 06:20:19;;;;;;;0.50;0.40;;;18.50;99.90;;;;;;5024444;28;20456;-79
2023/07/07 06:22:46;;;;;;;0.50;0.40;;;18.70;99.90;;;;;;5020318;28;20439;-78
2023/07/07 06:25:13;;;;;;;0.50;0.30;;;18.90;99.90;;;;;;5028468;28;20439;-78
2023/07/07 06:27:40;;;;;;;0.50;0.40;;;19.10;99.90;;;;;;5026862;28;20449;-81
2023/07/07 06:30:07;;;;;;;0.50;0.30;;;19.40;99.90;;;;;;5030836;28;20465;-79
2023/07/07 06:32:34;;;;;;;0.50;0.30;;;19.80;99.90;;;;;;5020698;28;20446;-79
2023/07/07 06:35:01;;;;;;;0.50;0.40;;;20.00;99.90;;;;;;5024471;28;20478;-79
2023/07/07 06:37:29;;;;;;;0.50;0.30;;;20.40;99.90;;;;;;5025674;28;20460;-77
2023/07/07 06:39:56;;;;;;;0.50;0.40;;;20.60;99.90;;;;;;5028343;28;20474;-79
2023/07/07 06:42:23;;;;;;;0.50;0.30;;;20.70;99.90;;;;;;5028765;28;20479;-79
2023/07/07 06:44:50;;;;;;;0.50;0.40;;;21.00;99.90;;;;;;5029949;28;20454;-77
2023/07/07 06:47:18;;;;;;;0.50;0.40;;;21.60;99.90;;;;;;5031963;28;20448;-78
2023/07/07 06:49:45;;;;;;;0.50;0.50;;;22.50;99.90;;;;;;5028710;28;20474;-78
2023/07/07 06:52:12;;;;;;;0.50;0.30;;;23.30;99.90;;;;;;5033027;28;20869;-76
2023/07/07 06:54:40;;;;;;;0.50;0.43;;;23.90;99.90;;;;;;5028538;28;20442;-80
2023/07/07 06:57:07;;;;;;;0.50;0.40;;;24.10;99.90;;;;;;5031416;28;20449;-80
2023/07/07 06:59:34;;;;;;;0.50;0.30;;;24.80;97.40;;;;;;5030836;28;20491;-80
2023/07/07 07:02:01;;;;;;;0.50;0.37;;;25.10;96.60;;;;;;5032902;28;20460;-80
2023/07/07 07:04:28;;;;;;;0.50;0.30;;;26.10;95.00;;;;;;5032354;28;20462;-80
2023/07/07 07:06:54;;;;;;;0.50;0.30;;;26.90;92.80;;;;;;5029175;28;20845;-80
2023/07/07 07:09:21;;;;;;;0.50;0.30;;;27.20;85.90;;;;;;5035611;28;20453;-77
2023/07/07 07:11:50;;;;;;;0.60;0.60;;;27.50;80.90;;;;;;5030002;28;20448;-79
2023/07/07 07:14:16;;;;;;;0.50;0.30;;;27.90;85.00;;;;;;5020110;28;20451;-79
2023/07/07 07:16:43;;;;;;;0.50;0.30;;;28.30;79.40;;;;;;5037072;28;20477;-79
2023/07/07 07:19:10;;;;;;;0.50;0.30;;;28.40;75.50;;;;;;5034185;28;20479;-79
2023/07/07 07:21:36;;;;;;;0.50;0.30;;;28.50;73.70;;;;;;5031746;28;20472;-79
2023/07/07 07:24:03;;;;;;;0.50;0.30;;;29.20;80.00;;;;;;5027765;28;20446;-80
2023/07/07 07:26:30;;;;;;;0.50;0.30;;;29.40;75.90;;;;;;5020363;28;20452;-79
2023/07/07 07:28:58;;;;;;;0.50;0.30;;;29.90;69.60;;;;;;5020134;28;20438;-80
2023/07/07 07:31:26;;;;;;;0.50;0.30;;;30.00;67.20;;;;;;5036729;28;20459;-79
2023/07/07 07:33:55;;;;;;;0.60;0.50;;;30.10;67.80;;;;;;5029889;28;20449;-81
2023/07/07 07:36:23;;;;;;;0.50;0.30;;;30.70;64.30;;;;;;5028131;28;20484;-81
2023/07/07 07:38:49;;;;;;;0.50;0.30;;;30.90;63.70;;;;;;5032270;28;20449;-80
2023/07/07 07:41:16;;;;;;;0.50;0.30;;;30.50;60.00;;;;;;5032420;28;20468;-80
2023/07/07 07:43:43;;;;;;;0.47;0.30;;;30.50;63.30;;;;;;5031144;28;20540;-80
2023/07/07 07:46:11;;;;;;;0.50;0.30;;;30.80;63.00;;;;;;5026831;28;20435;-80
2023/07/07 07:48:38;;;;;;;0.50;0.30;;;31.10;59.90;;;;;;5032285;28;20440;-80
2023/07/07 07:51:05;;;;;;;0.50;0.30;;;31.40;62.80;;;;;;5029378;28;20536;-81
2023/07/07 07:53:31;;;;;;;0.50;0.30;;;31.00;57.60;;;;;;5029968;28;20445;-79
2023/07/07 07:55:58;;;;;;;0.50;0.30;;;30.90;56.10;;;;;;5029037;28;20489;-81
2023/07/07 07:58:25;;;;;;;0.50;0.30;;;30.90;59.90;;;;;;5028072;28;20449;-80
2023/07/07 08:00:52;;;;;;;0.50;0.30;;;31.00;56.60;;;;;;5029527;28;20835;-80
2023/07/07 08:03:20;;;;;;;0.50;0.50;;;31.00;56.80;;;;;;5030068;28;20967;-80
2023/07/07 08:05:47;;;;;;;0.50;0.30;;;31.70;59.10;;;;;;5040656;28;20472;-80
2023/07/07 08:08:13;;;;;;;0.50;0.30;;;32.00;54.90;;;;;;5035355;28;20456;-80
2023/07/07 08:10:40;;;;;;;0.50;0.30;;;32.20;54.60;;;;;;5023156;28;20471;-79
2023/07/07 08:13:07;;;;;;;0.50;0.30;;;32.80;57.00;;;;;;5028617;28;20445;-79
2023/07/07 08:15:34;;;;;;;0.50;0.30;;;32.70;53.90;;;;;;5026528;28;20488;-79
2023/07/07 08:18:01;;;;;;;0.43;0.30;;;33.30;55.30;;;;;;5023799;28;20450;-80
2023/07/07 08:20:30;;;;;;;0.40;0.30;;;33.80;53.70;;;;;;5018086;28;20966;-79
2023/07/07 08:22:57;;;;;;;0.40;0.30;;;34.10;52.10;;;;;;5028491;28;21003;-81
2023/07/07 08:25:24;;;;;;;0.60;0.60;;;33.70;51.90;;;;;;5028511;28;20917;-80
2023/07/07 08:27:53;;;;;;;0.40;0.30;;;34.10;51.80;;;;;;5037904;28;20455;-77
2023/07/07 08:30:20;;;;;;;5.03;1.23;;;34.60;50.50;;;;;;5031142;28;20465;-79
2023/07/07 08:32:47;;;;;;;0.40;0.30;;;34.40;50.20;;;;;;5038647;28;20456;-78
2023/07/07 08:35:14;;;;;;;0.40;0.30;;;34.30;53.40;;;;;;5034705;28;20445;-80
2023/07/07 08:37:42;;;;;;;0.40;0.30;;;34.60;52.40;;;;;;5028699;28;20456;-80
2023/07/07 08:40:14;;;;;;;0.40;0.30;;;34.80;50.70;;;;;;5030018;28;20464;-76
2023/07/07 08:42:42;;;;;;;0.40;0.30;;;34.90;48.50;;;;;;5037549;28;20513;-80
2023/07/07 08:45:15;;;;;;;0.60;0.60;;;34.80;49.10;;;;;;5025465;28;20530;-79
2023/07/07 08:47:52;;;;;;;0.40;0.30;;;34.90;53.40;;;;;;5032668;28;20518;-79
2023/07/07 08:50:26;;;;;;;0.40;0.30;;;34.80;50.60;;;;;;5024700;28;20460;-80
2023/07/07 08:53:02;;;;;;;0.40;0.30;;;35.10;50.40;;;;;;5035469;28;20879;-80
2023/07/07 08:55:48;;;;;;;0.40;0.30;;;35.20;51.80;;;;;;5039208;28;20583;-79
2023/07/07 08:58:21;;;;;;;0.40;0.30;;;35.50;50.30;;;;;;5028140;28;20477;-80
2023/07/07 09:00:55;;;;;;;0.40;0.30;;;36.00;50.70;;;;;;5034319;28;20461;-80
2023/07/07 09:03:38;;;;;;;0.40;0.30;;;36.20;47.20;;;;;;5035329;28;20450;-80
2023/07/07 09:06:15;;;;;;;0.40;0.30;;;36.40;49.30;;;;;;5030077;28;20441;-80
2023/07/07 09:08:51;;;;;;;0.40;0.30;;;35.80;47.30;;;;;;5036873;28;20462;-78
2023/07/07 09:11:29;;;;;;;0.40;0.30;;;35.60;46.50;;;;;;5025279;28;20484;-80
2023/07/07 09:13:59;;;;;;;0.40;0.30;;;35.50;47.10;;;;;;5042372;28;20443;-80
2023/07/07 09:16:29;;;;;;;0.40;0.30;;;35.80;45.80;;;;;;5032751;28;20477;-80
2023/07/07 09:19:03;;;;;;;0.40;0.30;;;35.00;46.30;;;;;;5035078;28;20460;-81
2023/07/07 09:21:47;;;;;;;0.40;0.30;;;35.10;45.50;;;;;;5036106;28;21040;-79
2023/07/07 09:24:21;;;;;;;0.40;0.30;;;35.00;46.30;;;;;;5021690;28;20433;-78
2023/07/07 09:26:51;;;;;;;0.40;0.30;;;35.20;48.10;;;;;;5022455;28;20438;-77
2023/07/07 09:29:24;;;;;;;0.40;0.30;;;35.30;46.50;;;;;;5026350;28;20941;-79
2023/07/07 09:31:51;;;;;;;0.40;0.30;;;35.30;45.70;;;;;;5024498;28;20536;-79
2023/07/07 09:34:18;;;;;;;0.50;0.47;;;35.00;46.00;;;;;;5029950;28;20444;-79
2023/07/07 09:36:58;;;;;;;0.40;0.30;;;34.90;46.90;;;;;;5028597;28;20494;-79
2023/07/07 09:39:53;;;;;;;0.40;0.30;;;34.50;47.10;;;;;;5026650;28;20451;-77
2023/07/07 09:42:37;;;;;;;0.50;0.30;;;33.70;47.00;;;;;;5076744;22;20486;-84
2023/07/07 09:45:15;;;;;;;0.40;0.30;;;34.10;49.80;;;;;;5021749;28;20980;-83
2023/07/07 09:47:49;;;;;;;0.40;0.30;;;34.90;49.10;;;;;;5026292;28;20453;-84
2023/07/07 09:50:20;;;;;;;0.40;0.30;;;35.60;47.90;;;;;;5018099;28;20533;-83
2023/07/07 09:52:51;;;;;;;0.40;0.30;;;35.60;46.50;;;;;;5034252;28;20500;-83
2023/07/07 09:55:22;;;;;;;0.40;0.30;;;36.20;46.20;;;;;;5029188;28;20453;-85
2023/07/07 09:57:57;;;;;;;2.00;0.93;;;36.00;43.90;;;;;;5036245;28;20493;-84
2023/07/07 10:00:26;;;;;;;0.40;0.30;;;35.10;43.80;;;;;;5030163;28;20479;-85
2023/07/07 10:02:54;;;;;;;0.40;0.30;;;34.20;44.50;;;;;;5029256;28;20469;-83
2023/07/07 10:05:26;;;;;;;0.40;0.30;;;34.30;44.40;;;;;;5036796;28;20452;-83
2023/07/07 10:07:54;;;;;;;0.40;0.40;;;34.80;44.90;;;;;;5036889;28;20445;-85
2023/07/07 10:10:22;;;;;;;0.40;0.30;;;35.60;47.20;;;;;;5031464;28;20441;-83
2023/07/07 10:12:49;;;;;;;0.40;0.30;;;36.20;43.10;;;;;;5033593;28;20623;-84
2023/07/07 10:15:45;;;;;;;0.50;0.40;;;35.80;44.60;;;;;;5031581;28;20449;-83
2023/07/07 10:18:16;;;;;;;0.40;0.30;;;36.30;43.60;;;;;;5039439;28;20437;-83
2023/07/07 10:20:44;;;;;;;0.40;0.30;;;36.00;43.40;;;;;;5027794;28;20456;-84
2023/07/07 10:23:12;;;;;;;0.40;0.30;;;36.00;43.20;;;;;;5035475;28;20552;-83
2023/07/07 10:25:42;;;;;;;0.40;0.30;;;35.20;42.00;;;;;;5028481;28;20482;-85
2023/07/07 10:28:12;;;;;;;0.40;0.30;;;35.10;42.50;;;;;;5030479;28;20450;-84
2023/07/07 10:30:41;;;;;;;0.40;0.30;;;34.60;43.50;;;;;;5030719;28;20456;-84
2023/07/07 10:33:11;;;;;;;0.40;0.30;;;34.80;43.90;;;;;;5026460;28;20492;-82
2023/07/07 10:35:38;;;;;;;0.40;0.30;;;34.90;45.00;;;;;;5035308;28;20455;-83
2023/07/07 10:38:06;;;;;;;0.40;0.30;;;35.70;47.10;;;;;;5025413;28;20450;-84
2023/07/07 10:40:33;;;;;;;0.50;0.47;;;36.30;45.80;;;;;;5022958;28;20445;-84
2023/07/07 10:43:02;;;;;;;0.40;0.40;;;37.20;43.00;;;;;;5039272;28;20461;-84
2023/07/07 10:45:29;;;;;;;0.60;0.53;;;36.70;41.00;;;;;;5031378;28;20437;-83
2023/07/07 10:47:56;;;;;;;1.07;0.73;;;36.50;41.20;;;;;;5033600;28;20437;-84
2023/07/07 10:50:26;;;;;;;0.40;0.30;;;36.30;42.90;;;;;;5023452;28;20446;-84
2023/07/07 10:53:06;;;;;;;0.40;0.30;;;36.80;42.80;;;;;;5032070;28;20468;-83
2023/07/07 10:55:38;;;;;;;0.40;0.30;;;36.10;41.40;;;;;;5034855;28;20444;-84
2023/07/07 10:58:22;;;;;;;1.70;1.13;;;36.10;41.90;;;;;;5028791;28;20488;-83
2023/07/07 11:01:02;;;;;;;0.40;0.30;;;36.00;45.10;;;;;;5043338;28;20450;-83
2023/07/07 11:03:46;;;;;;;0.40;0.30;;;36.50;43.10;;;;;;5023195;28;20467;-85
2023/07/07 11:06:22;;;;;;;0.40;0.30;;;36.90;49.00;;;;;;5028336;28;20441;-83
2023/07/07 11:09:03;;;;;;;0.40;0.30;;;37.70;45.60;;;;;;5034992;28;20436;-84
2023/07/07 11:11:38;;;;;;;0.60;0.60;;;38.20;45.20;;;;;;5022620;28;20465;-81
2023/07/07 11:14:21;;;;;;;0.40;0.30;;;38.50;41.50;;;;;;5027361;28;20446;-85
2023/07/07 11:17:01;;;;;;;0.50;0.40;;;38.60;40.30;;;;;;5020685;28;20485;-85
2023/07/07 11:19:50;;;;;;;0.40;0.30;;;37.90;40.00;;;;;;5012738;28;20638;-84
2023/07/07 11:22:26;;;;;;;0.40;0.30;;;38.00;40.70;;;;;;5032148;28;20976;-85
2023/07/07 11:25:01;;;;;;;0.60;0.57;;;37.60;39.80;;;;;;5032411;28;20437;-83
2023/07/07 11:27:47;;;;;;;0.50;0.40;;;37.50;40.50;;;;;;5023071;28;20444;-85
2023/07/07 11:30:23;;;;;;;0.40;0.30;;;37.20;39.90;;;;;;5018939;28;20457;-86
2023/07/07 11:33:03;;;;;;;1.00;0.70;;;36.10;41.70;;;;;;5028358;28;20468;-85
2023/07/07 11:35:43;;;;;;;0.60;0.40;;;36.00;40.80;;;;;;5017892;28;20457;-84
2023/07/07 11:38:41;;;;;;;0.60;0.40;;;35.60;41.30;;;;;;5033738;28;21024;-84
2023/07/07 11:41:14;;;;;;;0.40;0.30;;;34.60;40.60;;;;;;5033806;28;21019;-85
2023/07/07 11:44:05;;;;;;;0.40;0.30;;;34.30;42.70;;;;;;5029301;28;20437;-85
2023/07/07 11:46:46;;;;;;;0.40;0.30;;;35.00;44.50;;;;;;5016822;28;20453;-84
2023/07/07 11:49:37;;;;;;;0.40;0.30;;;35.80;45.10;;;;;;5031262;28;20448;-85
2023/07/07 11:52:19;;;;;;;0.40;0.30;;;36.10;42.20;;;;;;5031186;28;20476;-84
2023/07/07 11:55:09;;;;;;;0.40;0.30;;;36.70;44.50;;;;;;5030221;28;20520;-83
2023/07/07 11:57:52;;;;;;;0.40;0.30;;;37.20;44.30;;;;;;5025897;28;20484;-85
2023/07/07 12:00:33;;;;;;;0.47;0.47;;;37.80;42.40;;;;;;5026500;28;20504;-83
2023/07/07 12:03:18;;;;;;;0.50;0.40;;;37.10;40.80;;;;;;5035369;28;20484;-84
2023/07/07 12:05:47;;;;;;;0.40;0.30;;;36.50;43.00;;;;;;5038512;28;20441;-83
2023/07/07 12:08:16;;;;;;;0.40;0.30;;;36.90;41.90;;;;;;5034691;28;20438;-85
2023/07/07 12:10:46;;;;;;;0.40;0.30;;;36.90;45.00;;;;;;5032115;28;20436;-85
2023/07/07 12:13:18;;;;;;;0.40;0.30;;;37.40;41.70;;;;;;5036960;28;20995;-85
2023/07/07 12:15:50;;;;;;;0.40;0.30;;;37.70;42.50;;;;;;5023979;28;20453;-83
2023/07/07 12:18:23;;;;;;;0.40;0.40;;;38.00;43.60;;;;;;5035974;28;20481;-82
2023/07/07 12:20:55;;;;;;;0.40;0.30;;;38.40;40.00;;;;;;5036346;28;20806;-84
2023/07/07 12:23:29;;;;;;;0.40;0.30;;;37.90;40.00;;;;;;5028172;28;20985;-84
2023/07/07 12:25:58;;;;;;;0.40;0.30;;;37.50;41.30;;;;;;5028083;28;20512;-84
2023/07/07 12:28:24;;;;;;;0.40;0.30;;;37.60;40.70;;;;;;5027753;28;20528;-85
2023/07/07 12:30:51;;;;;;;0.40;0.30;;;37.60;42.40;;;;;;5029435;28;20446;-84
2023/07/07 12:33:21;;;;;;;0.40;0.30;;;38.10;39.30;;;;;;5034634;28;20480;-84
2023/07/07 12:35:52;;;;;;;0.40;0.30;;;37.80;40.90;;;;;;5036712;28;20450;-84
2023/07/07 12:38:26;;;;;;;0.50;0.50;;;37.40;39.50;;;;;;5028669;28;20486;-85
2023/07/07 12:40:56;;;;;;;0.40;0.30;;;36.90;40.50;;;;;;5038933;28;20530;-82
2023/07/07 12:43:29;;;;;;;0.40;0.30;;;37.00;41.20;;;;;;4987141;28;1097618;-83
2023/07/07 12:45:56;;;;;;;0.60;0.40;;;37.30;40.50;;;;;;5033613;28;20297;-83
2023/07/07 12:48:28;;;;;;;0.40;0.30;;;37.50;40.10;;;;;;5028827;28;20466;-83
2023/07/07 12:51:00;;;;;;;0.40;0.30;;;37.40;41.50;;;;;;5029347;28;20449;-85
2023/07/07 12:53:30;;;;;;;0.40;0.30;;;37.90;40.20;;;;;;5036638;28;20510;-84
2023/07/07 12:56:13;;;;;;;0.40;0.30;;;38.00;43.10;;;;;;5037128;28;20849;-84
2023/07/07 12:58:47;;;;;;;0.40;0.30;;;38.20;39.10;;;;;;5025019;28;21039;-83
2023/07/07 13:01:35;;;;;;;0.50;0.40;;;37.50;39.10;;;;;;5020878;28;20453;-85